sensor_id;sensor_type;location;lat;lon;timestamp;temperature;humidity
77523;SHT31;66637;-29.628;-49.938;2023-02-01T00:01:10;26.27;76.21
77523;SHT31;66637;-29.628;-49.938;2023-02-01T00:03:43;26.23;76.57
77523;SHT31;66637;-29.628;-49.938;2023-02-01T00:06:14;26.10;76.82
77523;SHT31;66637;-29.628;-49.938;2023-02-01T00:08:45;26.12;76.64
77523;SHT31;66637;-29.628;-49.938;2023-02-01T00:11:21;25.97;77.00
77523;SHT31;66637;-29.628;-49.938;2023-02-01T00:13:52;26.03;76.61
77523;SHT31;66637;-29.628;-49.938;2023-02-01T00:16:25;26.19;76.26
77523;SHT31;66637;-29.628;-49.938;2023-02-01T00:19:11;26.14;76.41
77523;SHT31;66637;-29.628;-49.938;2023-02-01T00:21:42;25.99;76.61
77523;SHT31;66637;-29.628;-49.938;2023-02-01T00:24:14;25.72;77.58
77523;SHT31;66637;-29.628;-49.938;2023-02-01T00:26:45;25.46;78.43
77523;SHT31;66637;-29.628;-49.938;2023-02-01T00:29:19;25.49;78.23
77523;SHT31;66637;-29.628;-49.938;2023-02-01T00:31:51;25.52;78.83
77523;SHT31;66637;-29.628;-49.938;2023-02-01T00:34:21;25.55;78.70
77523;SHT31;66637;-29.628;-49.938;2023-02-01T00:36:54;25.51;79.02
77523;SHT31;66637;-29.628;-49.938;2023-02-01T00:39:24;25.63;78.85
77523;SHT31;66637;-29.628;-49.938;2023-02-01T00:41:55;25.68;78.59
77523;SHT31;66637;-29.628;-49.938;2023-02-01T00:44:26;25.71;78.57
77523;SHT31;66637;-29.628;-49.938;2023-02-01T00:46:56;25.62;78.97
77523;SHT31;66637;-29.628;-49.938;2023-02-01T00:52:25;25.58;79.40
77523;SHT31;66637;-29.628;-49.938;2023-02-01T00:55:12;25.53;79.38
77523;SHT31;66637;-29.628;-49.938;2023-02-01T00:58:07;25.51;79.66
77523;SHT31;66637;-29.628;-49.938;2023-02-01T01:01:20;25.57;79.49
77523;SHT31;66637;-29.628;-49.938;2023-02-01T01:04:00;25.39;79.79
77523;SHT31;66637;-29.628;-49.938;2023-02-01T01:06:34;25.32;79.95
77523;SHT31;66637;-29.628;-49.938;2023-02-01T01:09:15;25.30;79.76
77523;SHT31;66637;-29.628;-49.938;2023-02-01T01:12:05;25.20;79.69
77523;SHT31;66637;-29.628;-49.938;2023-02-01T01:15:06;25.20;79.39
77523;SHT31;66637;-29.628;-49.938;2023-02-01T01:17:48;25.15;78.98
77523;SHT31;66637;-29.628;-49.938;2023-02-01T01:20:21;25.17;79.04
77523;SHT31;66637;-29.628;-49.938;2023-02-01T01:23:15;25.11;79.19
77523;SHT31;66637;-29.628;-49.938;2023-02-01T01:26:24;25.15;79.05
77523;SHT31;66637;-29.628;-49.938;2023-02-01T01:29:29;25.15;78.98
77523;SHT31;66637;-29.628;-49.938;2023-02-01T01:32:15;25.15;79.00
77523;SHT31;66637;-29.628;-49.938;2023-02-01T01:34:59;25.10;78.85
77523;SHT31;66637;-29.628;-49.938;2023-02-01T01:37:39;25.07;78.90
77523;SHT31;66637;-29.628;-49.938;2023-02-01T01:40:32;25.04;78.85
77523;SHT31;66637;-29.628;-49.938;2023-02-01T01:43:18;25.07;78.59
77523;SHT31;66637;-29.628;-49.938;2023-02-01T01:45:55;25.04;78.47
77523;SHT31;66637;-29.628;-49.938;2023-02-01T01:48:35;25.07;78.34
77523;SHT31;66637;-29.628;-49.938;2023-02-01T01:51:29;25.12;77.14
77523;SHT31;66637;-29.628;-49.938;2023-02-01T01:54:33;25.08;78.14
77523;SHT31;66637;-29.628;-49.938;2023-02-01T01:57:23;24.95;78.38
77523;SHT31;66637;-29.628;-49.938;2023-02-01T02:00:15;24.98;78.32
77523;SHT31;66637;-29.628;-49.938;2023-02-01T02:03:22;25.01;78.30
77523;SHT31;66637;-29.628;-49.938;2023-02-01T02:06:14;24.98;78.18
77523;SHT31;66637;-29.628;-49.938;2023-02-01T02:09:54;25.01;78.05
77523;SHT31;66637;-29.628;-49.938;2023-02-01T02:12:48;24.92;78.28
77523;SHT31;66637;-29.628;-49.938;2023-02-01T02:15:47;24.81;78.75
77523;SHT31;66637;-29.628;-49.938;2023-02-01T02:29:14;24.81;78.28
77523;SHT31;66637;-29.628;-49.938;2023-02-01T02:33:13;24.69;78.49
77523;SHT31;66637;-29.628;-49.938;2023-02-01T02:36:38;24.66;78.56
77523;SHT31;66637;-29.628;-49.938;2023-02-01T02:46:29;24.53;78.81
77523;SHT31;66637;-29.628;-49.938;2023-02-01T02:49:35;24.44;78.96
77523;SHT31;66637;-29.628;-49.938;2023-02-01T02:52:12;24.55;78.22
77523;SHT31;66637;-29.628;-49.938;2023-02-01T02:55:06;24.47;79.01
77523;SHT31;66637;-29.628;-49.938;2023-02-01T02:57:42;24.47;79.14
77523;SHT31;66637;-29.628;-49.938;2023-02-01T03:00:34;24.44;79.32
77523;SHT31;66637;-29.628;-49.938;2023-02-01T03:03:25;24.44;79.41
77523;SHT31;66637;-29.628;-49.938;2023-02-01T03:06:15;24.39;79.44
77523;SHT31;66637;-29.628;-49.938;2023-02-01T03:08:49;24.36;79.32
77523;SHT31;66637;-29.628;-49.938;2023-02-01T03:11:26;24.36;79.02
77523;SHT31;66637;-29.628;-49.938;2023-02-01T03:14:18;24.37;79.10
77523;SHT31;66637;-29.628;-49.938;2023-02-01T03:16:54;24.32;79.32
77523;SHT31;66637;-29.628;-49.938;2023-02-01T03:19:46;24.33;78.89
77523;SHT31;66637;-29.628;-49.938;2023-02-01T03:22:23;24.29;79.04
77523;SHT31;66637;-29.628;-49.938;2023-02-01T03:25:05;24.30;79.11
77523;SHT31;66637;-29.628;-49.938;2023-02-01T03:28:00;24.35;78.74
77523;SHT31;66637;-29.628;-49.938;2023-02-01T03:30:42;24.33;79.24
77523;SHT31;66637;-29.628;-49.938;2023-02-01T03:33:17;24.32;79.15
77523;SHT31;66637;-29.628;-49.938;2023-02-01T03:41:48;24.32;79.72
77523;SHT31;66637;-29.628;-49.938;2023-02-01T03:44:30;24.30;79.73
77523;SHT31;66637;-29.628;-49.938;2023-02-01T03:47:13;24.33;79.74
77523;SHT31;66637;-29.628;-49.938;2023-02-01T03:49:50;24.32;79.83
77523;SHT31;66637;-29.628;-49.938;2023-02-01T03:52:28;24.32;79.95
77523;SHT31;66637;-29.628;-49.938;2023-02-01T03:55:04;24.32;80.46
77523;SHT31;66637;-29.628;-49.938;2023-02-01T03:58:09;24.35;80.11
77523;SHT31;66637;-29.628;-49.938;2023-02-01T04:00:36;24.28;80.75
77523;SHT31;66637;-29.628;-49.938;2023-02-01T04:03:07;24.33;80.64
77523;SHT31;66637;-29.628;-49.938;2023-02-01T04:05:37;24.30;80.67
77523;SHT31;66637;-29.628;-49.938;2023-02-01T04:08:08;24.30;80.96
77523;SHT31;66637;-29.628;-49.938;2023-02-01T04:10:39;24.29;81.10
77523;SHT31;66637;-29.628;-49.938;2023-02-01T04:13:08;24.37;80.64
77523;SHT31;66637;-29.628;-49.938;2023-02-01T04:15:39;24.33;81.01
77523;SHT31;66637;-29.628;-49.938;2023-02-01T04:18:09;24.30;81.14
77523;SHT31;66637;-29.628;-49.938;2023-02-01T04:20:40;24.32;81.26
77523;SHT31;66637;-29.628;-49.938;2023-02-01T04:23:10;24.19;81.47
77523;SHT31;66637;-29.628;-49.938;2023-02-01T04:25:40;23.99;81.95
77523;SHT31;66637;-29.628;-49.938;2023-02-01T04:28:10;23.90;82.12
77523;SHT31;66637;-29.628;-49.938;2023-02-01T04:30:40;23.82;81.70
77523;SHT31;66637;-29.628;-49.938;2023-02-01T04:33:10;23.72;82.13
77523;SHT31;66637;-29.628;-49.938;2023-02-01T04:35:43;23.65;82.79
77523;SHT31;66637;-29.628;-49.938;2023-02-01T04:38:13;23.61;83.09
77523;SHT31;66637;-29.628;-49.938;2023-02-01T04:40:43;23.61;83.09
77523;SHT31;66637;-29.628;-49.938;2023-02-01T04:43:12;23.59;83.17
77523;SHT31;66637;-29.628;-49.938;2023-02-01T04:45:47;23.61;83.20
77523;SHT31;66637;-29.628;-49.938;2023-02-01T04:48:19;23.59;83.58
77523;SHT31;66637;-29.628;-49.938;2023-02-01T04:50:52;23.58;84.18
77523;SHT31;66637;-29.628;-49.938;2023-02-01T04:53:22;23.57;83.69
77523;SHT31;66637;-29.628;-49.938;2023-02-01T04:55:52;23.51;83.78
77523;SHT31;66637;-29.628;-49.938;2023-02-01T04:58:22;23.51;83.98
77523;SHT31;66637;-29.628;-49.938;2023-02-01T05:00:52;23.55;84.27
77523;SHT31;66637;-29.628;-49.938;2023-02-01T05:03:22;23.41;84.85
77523;SHT31;66637;-29.628;-49.938;2023-02-01T05:05:52;23.35;84.56
77523;SHT31;66637;-29.628;-49.938;2023-02-01T05:08:22;23.34;84.68
77523;SHT31;66637;-29.628;-49.938;2023-02-01T05:10:54;23.40;85.30
77523;SHT31;66637;-29.628;-49.938;2023-02-01T05:13:25;23.33;85.26
77523;SHT31;66637;-29.628;-49.938;2023-02-01T05:16:14;23.34;85.63
77523;SHT31;66637;-29.628;-49.938;2023-02-01T05:18:44;23.38;85.23
77523;SHT31;66637;-29.628;-49.938;2023-02-01T05:21:14;23.31;84.82
77523;SHT31;66637;-29.628;-49.938;2023-02-01T05:23:44;23.43;84.58
77523;SHT31;66637;-29.628;-49.938;2023-02-01T05:26:33;23.43;84.98
77523;SHT31;66637;-29.628;-49.938;2023-02-01T05:29:03;23.44;84.75
77523;SHT31;66637;-29.628;-49.938;2023-02-01T05:31:34;23.58;85.60
77523;SHT31;66637;-29.628;-49.938;2023-02-01T05:34:04;23.55;85.15
77523;SHT31;66637;-29.628;-49.938;2023-02-01T05:36:34;23.55;85.22
77523;SHT31;66637;-29.628;-49.938;2023-02-01T05:39:04;23.43;84.88
77523;SHT31;66637;-29.628;-49.938;2023-02-01T05:41:34;23.37;85.12
77523;SHT31;66637;-29.628;-49.938;2023-02-01T05:44:04;23.50;85.11
77523;SHT31;66637;-29.628;-49.938;2023-02-01T05:46:37;23.34;85.14
77523;SHT31;66637;-29.628;-49.938;2023-02-01T05:49:07;23.24;84.61
77523;SHT31;66637;-29.628;-49.938;2023-02-01T05:51:37;23.24;84.45
77523;SHT31;66637;-29.628;-49.938;2023-02-01T05:54:08;23.18;84.81
77523;SHT31;66637;-29.628;-49.938;2023-02-01T05:56:39;23.23;85.58
77523;SHT31;66637;-29.628;-49.938;2023-02-01T05:59:10;23.14;86.14
77523;SHT31;66637;-29.628;-49.938;2023-02-01T06:01:41;23.10;85.52
77523;SHT31;66637;-29.628;-49.938;2023-02-01T06:04:11;23.07;85.93
77523;SHT31;66637;-29.628;-49.938;2023-02-01T06:06:41;23.03;86.31
77523;SHT31;66637;-29.628;-49.938;2023-02-01T06:09:11;23.00;85.85
77523;SHT31;66637;-29.628;-49.938;2023-02-01T06:11:41;22.97;85.32
77523;SHT31;66637;-29.628;-49.938;2023-02-01T06:14:11;23.08;85.72
77523;SHT31;66637;-29.628;-49.938;2023-02-01T06:16:41;23.17;85.21
77523;SHT31;66637;-29.628;-49.938;2023-02-01T06:19:11;23.10;84.66
77523;SHT31;66637;-29.628;-49.938;2023-02-01T06:21:40;23.06;84.93
77523;SHT31;66637;-29.628;-49.938;2023-02-01T06:24:10;23.04;85.26
77523;SHT31;66637;-29.628;-49.938;2023-02-01T06:26:40;23.06;85.28
77523;SHT31;66637;-29.628;-49.938;2023-02-01T06:29:11;23.08;85.01
77523;SHT31;66637;-29.628;-49.938;2023-02-01T06:31:41;23.00;85.39
77523;SHT31;66637;-29.628;-49.938;2023-02-01T06:34:12;23.02;85.49
77523;SHT31;66637;-29.628;-49.938;2023-02-01T06:36:42;23.14;85.51
77523;SHT31;66637;-29.628;-49.938;2023-02-01T06:39:12;23.14;85.47
77523;SHT31;66637;-29.628;-49.938;2023-02-01T06:41:49;23.14;85.52
77523;SHT31;66637;-29.628;-49.938;2023-02-01T06:44:19;23.10;84.79
77523;SHT31;66637;-29.628;-49.938;2023-02-01T06:46:50;23.14;85.30
77523;SHT31;66637;-29.628;-49.938;2023-02-01T06:49:20;23.07;85.19
77523;SHT31;66637;-29.628;-49.938;2023-02-01T06:51:50;23.18;85.61
77523;SHT31;66637;-29.628;-49.938;2023-02-01T06:54:20;23.23;85.65
77523;SHT31;66637;-29.628;-49.938;2023-02-01T06:56:50;23.18;85.49
77523;SHT31;66637;-29.628;-49.938;2023-02-01T06:59:20;23.14;85.35
77523;SHT31;66637;-29.628;-49.938;2023-02-01T07:01:50;23.17;85.31
77523;SHT31;66637;-29.628;-49.938;2023-02-01T07:04:20;23.15;85.33
77523;SHT31;66637;-29.628;-49.938;2023-02-01T07:06:50;23.15;85.17
77523;SHT31;66637;-29.628;-49.938;2023-02-01T07:09:20;23.17;85.36
77523;SHT31;66637;-29.628;-49.938;2023-02-01T07:11:50;23.10;85.83
77523;SHT31;66637;-29.628;-49.938;2023-02-01T07:14:19;23.15;86.18
77523;SHT31;66637;-29.628;-49.938;2023-02-01T07:16:51;23.13;86.12
77523;SHT31;66637;-29.628;-49.938;2023-02-01T07:19:21;23.11;85.94
77523;SHT31;66637;-29.628;-49.938;2023-02-01T07:21:51;23.15;85.76
77523;SHT31;66637;-29.628;-49.938;2023-02-01T07:24:21;23.14;85.82
77523;SHT31;66637;-29.628;-49.938;2023-02-01T07:26:51;23.08;85.14
77523;SHT31;66637;-29.628;-49.938;2023-02-01T07:29:21;23.11;85.46
77523;SHT31;66637;-29.628;-49.938;2023-02-01T07:31:51;23.06;85.93
77523;SHT31;66637;-29.628;-49.938;2023-02-01T07:34:21;23.06;86.00
77523;SHT31;66637;-29.628;-49.938;2023-02-01T07:36:50;23.06;85.62
77523;SHT31;66637;-29.628;-49.938;2023-02-01T07:39:20;23.04;85.69
77523;SHT31;66637;-29.628;-49.938;2023-02-01T07:41:50;23.00;85.06
77523;SHT31;66637;-29.628;-49.938;2023-02-01T07:44:20;22.94;84.86
77523;SHT31;66637;-29.628;-49.938;2023-02-01T07:46:52;22.97;85.77
77523;SHT31;66637;-29.628;-49.938;2023-02-01T07:49:22;22.97;85.65
77523;SHT31;66637;-29.628;-49.938;2023-02-01T07:51:52;22.94;85.57
77523;SHT31;66637;-29.628;-49.938;2023-02-01T07:54:22;22.96;85.56
77523;SHT31;66637;-29.628;-49.938;2023-02-01T07:56:52;22.97;85.67
77523;SHT31;66637;-29.628;-49.938;2023-02-01T07:59:22;23.00;85.49
77523;SHT31;66637;-29.628;-49.938;2023-02-01T08:01:52;23.02;85.29
77523;SHT31;66637;-29.628;-49.938;2023-02-01T08:04:22;23.02;85.15
77523;SHT31;66637;-29.628;-49.938;2023-02-01T08:06:52;23.04;84.46
77523;SHT31;66637;-29.628;-49.938;2023-02-01T08:09:22;23.03;83.97
77523;SHT31;66637;-29.628;-49.938;2023-02-01T08:11:52;22.99;83.79
77523;SHT31;66637;-29.628;-49.938;2023-02-01T08:14:21;23.00;83.20
77523;SHT31;66637;-29.628;-49.938;2023-02-01T08:16:51;22.94;82.80
77523;SHT31;66637;-29.628;-49.938;2023-02-01T08:19:21;22.87;82.70
77523;SHT31;66637;-29.628;-49.938;2023-02-01T08:21:51;22.89;82.78
77523;SHT31;66637;-29.628;-49.938;2023-02-01T08:24:21;22.93;82.74
77523;SHT31;66637;-29.628;-49.938;2023-02-01T08:26:51;22.87;82.87
77523;SHT31;66637;-29.628;-49.938;2023-02-01T08:29:22;22.86;82.89
77523;SHT31;66637;-29.628;-49.938;2023-02-01T08:31:52;22.80;82.84
77523;SHT31;66637;-29.628;-49.938;2023-02-01T08:34:23;22.72;83.15
77523;SHT31;66637;-29.628;-49.938;2023-02-01T08:36:53;22.77;82.93
77523;SHT31;66637;-29.628;-49.938;2023-02-01T08:39:29;22.72;83.01
77523;SHT31;66637;-29.628;-49.938;2023-02-01T08:41:59;22.69;83.29
77523;SHT31;66637;-29.628;-49.938;2023-02-01T08:44:47;22.70;83.07
77523;SHT31;66637;-29.628;-49.938;2023-02-01T08:47:17;22.69;83.19
77523;SHT31;66637;-29.628;-49.938;2023-02-01T08:49:47;22.73;83.16
77523;SHT31;66637;-29.628;-49.938;2023-02-01T08:52:17;22.72;83.12
77523;SHT31;66637;-29.628;-49.938;2023-02-01T08:54:47;22.74;83.29
77523;SHT31;66637;-29.628;-49.938;2023-02-01T08:57:17;22.83;83.00
77523;SHT31;66637;-29.628;-49.938;2023-02-01T08:59:47;22.87;82.82
77523;SHT31;66637;-29.628;-49.938;2023-02-01T09:02:17;22.92;82.60
77523;SHT31;66637;-29.628;-49.938;2023-02-01T09:04:47;22.99;82.60
77523;SHT31;66637;-29.628;-49.938;2023-02-01T09:07:17;23.02;82.34
77523;SHT31;66637;-29.628;-49.938;2023-02-01T09:09:47;22.97;82.42
77523;SHT31;66637;-29.628;-49.938;2023-02-01T09:12:17;23.00;82.59
77523;SHT31;66637;-29.628;-49.938;2023-02-01T09:14:47;23.10;82.21
77523;SHT31;66637;-29.628;-49.938;2023-02-01T09:17:17;23.14;81.88
77523;SHT31;66637;-29.628;-49.938;2023-02-01T09:19:47;23.17;81.84
77523;SHT31;66637;-29.628;-49.938;2023-02-01T09:22:17;23.18;81.68
77523;SHT31;66637;-29.628;-49.938;2023-02-01T09:24:47;23.21;81.54
77523;SHT31;66637;-29.628;-49.938;2023-02-01T09:27:17;23.27;81.29
77523;SHT31;66637;-29.628;-49.938;2023-02-01T09:29:47;23.33;81.08
77523;SHT31;66637;-29.628;-49.938;2023-02-01T09:32:23;23.34;80.80
77523;SHT31;66637;-29.628;-49.938;2023-02-01T09:34:53;23.38;80.93
77523;SHT31;66637;-29.628;-49.938;2023-02-01T09:37:23;23.47;80.90
77523;SHT31;66637;-29.628;-49.938;2023-02-01T09:39:54;23.55;80.88
77523;SHT31;66637;-29.628;-49.938;2023-02-01T09:42:52;23.72;80.76
77523;SHT31;66637;-29.628;-49.938;2023-02-01T09:45:38;23.78;80.29
77523;SHT31;66637;-29.628;-49.938;2023-02-01T09:48:16;23.84;80.50
77523;SHT31;66637;-29.628;-49.938;2023-02-01T09:50:57;24.02;80.73
77523;SHT31;66637;-29.628;-49.938;2023-02-01T09:53:36;24.15;80.75
77523;SHT31;66637;-29.628;-49.938;2023-02-01T09:59:51;24.41;80.35
77523;SHT31;66637;-29.628;-49.938;2023-02-01T10:01:54;24.50;80.01
77523;SHT31;66637;-29.628;-49.938;2023-02-01T10:04:25;24.55;80.09
77523;SHT31;66637;-29.628;-49.938;2023-02-01T10:09:59;24.80;79.50
77523;SHT31;66637;-29.628;-49.938;2023-02-01T10:26:25;29.97;64.34
77523;SHT31;66637;-29.628;-49.938;2023-02-01T10:29:00;29.42;65.13
77523;SHT31;66637;-29.628;-49.938;2023-02-01T10:31:35;30.69;62.03
77523;SHT31;66637;-29.628;-49.938;2023-02-01T10:34:21;31.04;61.51
77523;SHT31;66637;-29.628;-49.938;2023-02-01T10:37:00;30.79;61.38
77523;SHT31;66637;-29.628;-49.938;2023-02-01T10:39:30;30.45;62.26
77523;SHT31;66637;-29.628;-49.938;2023-02-01T10:42:00;30.54;62.70
77523;SHT31;66637;-29.628;-49.938;2023-02-01T10:44:31;30.67;62.37
77523;SHT31;66637;-29.628;-49.938;2023-02-01T10:47:09;30.86;61.82
77523;SHT31;66637;-29.628;-49.938;2023-02-01T10:49:55;30.67;63.37
77523;SHT31;66637;-29.628;-49.938;2023-02-01T10:55:33;31.34;62.17
77523;SHT31;66637;-29.628;-49.938;2023-02-01T10:58:10;31.51;61.55
77523;SHT31;66637;-29.628;-49.938;2023-02-01T11:03:55;30.72;64.53
77523;SHT31;66637;-29.628;-49.938;2023-02-01T11:06:37;30.69;63.00
77523;SHT31;66637;-29.628;-49.938;2023-02-01T11:17:00;31.87;58.87
77523;SHT31;66637;-29.628;-49.938;2023-02-01T11:19:31;32.17;57.49
77523;SHT31;66637;-29.628;-49.938;2023-02-01T11:22:01;32.38;57.13
77523;SHT31;66637;-29.628;-49.938;2023-02-01T11:24:35;31.27;60.45
77523;SHT31;66637;-29.628;-49.938;2023-02-01T11:27:16;29.72;64.35
77523;SHT31;66637;-29.628;-49.938;2023-02-01T11:30:01;29.05;66.27
77523;SHT31;66637;-29.628;-49.938;2023-02-01T11:32:34;28.75;67.19
77523;SHT31;66637;-29.628;-49.938;2023-02-01T11:35:05;28.76;68.06
77523;SHT31;66637;-29.628;-49.938;2023-02-01T11:37:40;28.81;67.93
77523;SHT31;66637;-29.628;-49.938;2023-02-01T11:42:58;28.92;68.25
77523;SHT31;66637;-29.628;-49.938;2023-02-01T11:45:31;28.74;69.13
77523;SHT31;66637;-29.628;-49.938;2023-02-01T11:48:09;28.99;68.01
77523;SHT31;66637;-29.628;-49.938;2023-02-01T12:05:37;29.04;68.34
77523;SHT31;66637;-29.628;-49.938;2023-02-01T12:08:49;29.46;67.86
77523;SHT31;66637;-29.628;-49.938;2023-02-01T12:14:27;28.99;68.33
77523;SHT31;66637;-29.628;-49.938;2023-02-01T12:34:24;28.81;71.01
77523;SHT31;66637;-29.628;-49.938;2023-02-01T12:40:12;28.60;71.62
77523;SHT31;66637;-29.628;-49.938;2023-02-01T12:43:13;28.84;71.44
77523;SHT31;66637;-29.628;-49.938;2023-02-01T12:46:13;28.62;72.42
77523;SHT31;66637;-29.628;-49.938;2023-02-01T12:49:16;28.72;71.51
77523;SHT31;66637;-29.628;-49.938;2023-02-01T12:51:49;28.75;71.74
77523;SHT31;66637;-29.628;-49.938;2023-02-01T12:54:39;29.05;71.29
77523;SHT31;66637;-29.628;-49.938;2023-02-01T12:57:39;29.12;71.18
77523;SHT31;66637;-29.628;-49.938;2023-02-01T13:00:29;29.23;70.94
77523;SHT31;66637;-29.628;-49.938;2023-02-01T13:05:51;29.08;71.62
77523;SHT31;66637;-29.628;-49.938;2023-02-01T13:11:18;29.20;70.78
77523;SHT31;66637;-29.628;-49.938;2023-02-01T13:16:49;29.72;69.83
77523;SHT31;66637;-29.628;-49.938;2023-02-01T13:22:44;29.76;69.48
77523;SHT31;66637;-29.628;-49.938;2023-02-01T13:25:37;29.87;69.27
77523;SHT31;66637;-29.628;-49.938;2023-02-01T13:31:23;30.03;70.08
77523;SHT31;66637;-29.628;-49.938;2023-02-01T13:42:27;30.14;68.69
77523;SHT31;66637;-29.628;-49.938;2023-02-01T13:45:12;29.96;69.89
77523;SHT31;66637;-29.628;-49.938;2023-02-01T13:47:52;30.06;69.43
77523;SHT31;66637;-29.628;-49.938;2023-02-01T13:50:31;30.08;69.21
77523;SHT31;66637;-29.628;-49.938;2023-02-01T13:58:35;29.63;70.10
77523;SHT31;66637;-29.628;-49.938;2023-02-01T14:01:32;29.59;70.33
77523;SHT31;66637;-29.628;-49.938;2023-02-01T14:04:06;29.23;71.29
77523;SHT31;66637;-29.628;-49.938;2023-02-01T14:06:56;29.42;71.70
77523;SHT31;66637;-29.628;-49.938;2023-02-01T14:09:34;30.13;69.93
77523;SHT31;66637;-29.628;-49.938;2023-02-01T14:12:43;30.13;69.69
77523;SHT31;66637;-29.628;-49.938;2023-02-01T14:15:24;29.86;69.85
77523;SHT31;66637;-29.628;-49.938;2023-02-01T14:17:56;29.49;70.32
77523;SHT31;66637;-29.628;-49.938;2023-02-01T14:20:43;29.56;70.95
77523;SHT31;66637;-29.628;-49.938;2023-02-01T14:23:18;29.62;70.37
77523;SHT31;66637;-29.628;-49.938;2023-02-01T14:26:01;30.11;69.79
77523;SHT31;66637;-29.628;-49.938;2023-02-01T14:28:34;30.20;70.50
77523;SHT31;66637;-29.628;-49.938;2023-02-01T14:31:49;30.51;68.93
77523;SHT31;66637;-29.628;-49.938;2023-02-01T14:34:35;29.93;70.00
77523;SHT31;66637;-29.628;-49.938;2023-02-01T14:42:50;30.54;68.49
77523;SHT31;66637;-29.628;-49.938;2023-02-01T14:58:56;30.01;69.92
77523;SHT31;66637;-29.628;-49.938;2023-02-01T15:01:34;29.80;70.68
77523;SHT31;66637;-29.628;-49.938;2023-02-01T15:04:15;29.80;70.38
77523;SHT31;66637;-29.628;-49.938;2023-02-01T15:06:49;29.83;71.16
77523;SHT31;66637;-29.628;-49.938;2023-02-01T15:09:37;30.45;70.14
77523;SHT31;66637;-29.628;-49.938;2023-02-01T15:12:15;30.49;68.68
77523;SHT31;66637;-29.628;-49.938;2023-02-01T15:15:14;30.85;68.25
77523;SHT31;66637;-29.628;-49.938;2023-02-01T15:17:54;30.72;68.52
77523;SHT31;66637;-29.628;-49.938;2023-02-01T15:20:27;30.68;68.00
77523;SHT31;66637;-29.628;-49.938;2023-02-01T15:23:14;30.64;68.88
77523;SHT31;66637;-29.628;-49.938;2023-02-01T15:25:46;30.59;69.08
77523;SHT31;66637;-29.628;-49.938;2023-02-01T15:28:18;30.85;69.84
77523;SHT31;66637;-29.628;-49.938;2023-02-01T15:31:00;30.88;68.58
77523;SHT31;66637;-29.628;-49.938;2023-02-01T15:33:32;30.85;67.91
77523;SHT31;66637;-29.628;-49.938;2023-02-01T15:36:10;30.93;68.55
77523;SHT31;66637;-29.628;-49.938;2023-02-01T15:38:43;30.88;68.53
77523;SHT31;66637;-29.628;-49.938;2023-02-01T15:46:31;30.93;68.53
77523;SHT31;66637;-29.628;-49.938;2023-02-01T15:49:03;30.72;69.08
77523;SHT31;66637;-29.628;-49.938;2023-02-01T15:51:34;30.71;69.31
77523;SHT31;66637;-29.628;-49.938;2023-02-01T15:54:06;30.54;69.52
77523;SHT31;66637;-29.628;-49.938;2023-02-01T15:56:39;30.38;70.23
77523;SHT31;66637;-29.628;-49.938;2023-02-01T15:59:19;30.57;70.32
77523;SHT31;66637;-29.628;-49.938;2023-02-01T16:01:50;30.79;69.59
77523;SHT31;66637;-29.628;-49.938;2023-02-01T16:04:26;30.90;68.34
77523;SHT31;66637;-29.628;-49.938;2023-02-01T16:07:01;30.76;68.29
77523;SHT31;66637;-29.628;-49.938;2023-02-01T16:10:00;30.95;68.57
77523;SHT31;66637;-29.628;-49.938;2023-02-01T16:15:11;30.86;69.00
77523;SHT31;66637;-29.628;-49.938;2023-02-01T16:17:40;30.92;68.64
77523;SHT31;66637;-29.628;-49.938;2023-02-01T16:20:13;31.12;68.83
77523;SHT31;66637;-29.628;-49.938;2023-02-01T16:22:43;31.06;68.55
77523;SHT31;66637;-29.628;-49.938;2023-02-01T16:25:13;30.90;68.54
77523;SHT31;66637;-29.628;-49.938;2023-02-01T16:27:44;30.48;69.02
77523;SHT31;66637;-29.628;-49.938;2023-02-01T16:30:15;30.37;69.97
77523;SHT31;66637;-29.628;-49.938;2023-02-01T16:32:56;30.38;70.21
77523;SHT31;66637;-29.628;-49.938;2023-02-01T16:35:37;30.51;69.84
77523;SHT31;66637;-29.628;-49.938;2023-02-01T16:38:13;30.62;70.24
77523;SHT31;66637;-29.628;-49.938;2023-02-01T16:40:45;30.48;69.61
77523;SHT31;66637;-29.628;-49.938;2023-02-01T16:43:23;30.54;70.24
77523;SHT31;66637;-29.628;-49.938;2023-02-01T16:45:59;30.38;70.41
77523;SHT31;66637;-29.628;-49.938;2023-02-01T16:48:35;30.38;71.34
77523;SHT31;66637;-29.628;-49.938;2023-02-01T16:51:12;30.72;70.53
77523;SHT31;66637;-29.628;-49.938;2023-02-01T16:53:46;30.78;70.00
77523;SHT31;66637;-29.628;-49.938;2023-02-01T16:56:31;30.59;70.18
77523;SHT31;66637;-29.628;-49.938;2023-02-01T16:59:03;30.35;69.94
77523;SHT31;66637;-29.628;-49.938;2023-02-01T17:01:58;30.32;70.41
77523;SHT31;66637;-29.628;-49.938;2023-02-01T17:04:35;30.17;70.56
77523;SHT31;66637;-29.628;-49.938;2023-02-01T17:07:12;30.23;70.98
77523;SHT31;66637;-29.628;-49.938;2023-02-01T17:09:45;30.29;70.67
77523;SHT31;66637;-29.628;-49.938;2023-02-01T17:12:26;30.38;70.13
77523;SHT31;66637;-29.628;-49.938;2023-02-01T17:14:58;30.52;69.99
77523;SHT31;66637;-29.628;-49.938;2023-02-01T17:17:39;30.55;70.24
77523;SHT31;66637;-29.628;-49.938;2023-02-01T17:20:24;30.61;69.75
77523;SHT31;66637;-29.628;-49.938;2023-02-01T17:23:05;30.41;70.08
77523;SHT31;66637;-29.628;-49.938;2023-02-01T17:25:38;30.37;70.82
77523;SHT31;66637;-29.628;-49.938;2023-02-01T17:28:07;30.28;71.11
77523;SHT31;66637;-29.628;-49.938;2023-02-01T17:30:41;30.32;70.91
77523;SHT31;66637;-29.628;-49.938;2023-02-01T17:33:35;30.38;70.92
77523;SHT31;66637;-29.628;-49.938;2023-02-01T17:36:15;30.38;70.81
77523;SHT31;66637;-29.628;-49.938;2023-02-01T17:38:47;30.32;71.31
77523;SHT31;66637;-29.628;-49.938;2023-02-01T17:41:34;30.21;71.43
77523;SHT31;66637;-29.628;-49.938;2023-02-01T17:44:09;30.13;71.86
77523;SHT31;66637;-29.628;-49.938;2023-02-01T17:46:39;30.03;72.56
77523;SHT31;66637;-29.628;-49.938;2023-02-01T17:49:09;30.13;71.99
77523;SHT31;66637;-29.628;-49.938;2023-02-01T17:51:45;30.20;72.97
77523;SHT31;66637;-29.628;-49.938;2023-02-01T17:54:19;30.31;72.15
77523;SHT31;66637;-29.628;-49.938;2023-02-01T17:56:49;30.10;71.78
77523;SHT31;66637;-29.628;-49.938;2023-02-01T17:59:19;30.29;72.82
77523;SHT31;66637;-29.628;-49.938;2023-02-01T18:01:50;30.61;71.44
77523;SHT31;66637;-29.628;-49.938;2023-02-01T18:04:21;30.71;70.70
77523;SHT31;66637;-29.628;-49.938;2023-02-01T18:06:54;30.65;71.67
77523;SHT31;66637;-29.628;-49.938;2023-02-01T18:09:26;30.65;70.62
77523;SHT31;66637;-29.628;-49.938;2023-02-01T18:11:56;30.69;70.77
77523;SHT31;66637;-29.628;-49.938;2023-02-01T18:14:27;30.74;71.20
77523;SHT31;66637;-29.628;-49.938;2023-02-01T18:16:58;30.58;70.70
77523;SHT31;66637;-29.628;-49.938;2023-02-01T18:19:32;30.03;73.19
77523;SHT31;66637;-29.628;-49.938;2023-02-01T18:22:05;29.90;73.34
77523;SHT31;66637;-29.628;-49.938;2023-02-01T18:24:39;30.21;71.47